Terminal Aerodrome Forecast
Issued by NWS

Home | Current Version | Previous Version | Text Only | Print | Product List | Glossary On
Versions: 1 2 3 4 5 6 7 8 9 10 11 12 13 14 15
282
FTUS41 KLWX 061727
TAFMTN
TAF
KMTN 061727Z 0618/0718 36006KT 4SM RA OVC008
     FM062000 02006KT 3SM -SHRA OVC008
     FM062300 32005KT 3SM -SHRA OVC008
     FM070300 31004KT P6SM OVC008
     FM070700 33005KT P6SM OVC008
     FM071600 33004KT P6SM BKN030=

USA.gov is the U.S. government's official web portal to all federal, state and local government web resources and services.